Flores, Brazil
Current Conditions -  °F | °C
As of 5:00 PM on Monday 24 Nov 2014 (Local Time) from SBJU Reporting Station
Scattered Clouds Scattered Clouds  
Wind Chill: 95°   Ceiling: Unl
Heat Index: 95°   Visibility: 6mi
Dew Point: 57°   Wind: 5mph
Humidity: 28%   Direction: 50°NE
Pressure: 29.91"   Gusts: NA
Location:  7.87°S, 37.97°W
Report Text: SBJU 242000Z 05004KT 9999 SCT020 35/14 Q1013
Loading
Personal Weather Stations






























Interactive Weather Map New forecast layout! Learn more

10-Day Weather Forecast

Advertisements
Track Severe Weather on mobile